sensor_id;sensor_type;location;lat;lon;timestamp;P1;durP1;ratioP1;P2;durP2;ratioP2
177;SDS011;77;48.792;9.032;2022-09-21T00:00:43;7.33;;;4.60;;
177;SDS011;77;48.792;9.032;2022-09-21T00:03:08;9.73;;;4.93;;
177;SDS011;77;48.792;9.032;2022-09-21T00:05:34;8.63;;;5.07;;
177;SDS011;77;48.792;9.032;2022-09-21T00:07:59;8.07;;;5.50;;
177;SDS011;77;48.792;9.032;2022-09-21T00:10:25;9.33;;;5.43;;
177;SDS011;77;48.792;9.032;2022-09-21T00:12:50;10.17;;;5.17;;
177;SDS011;77;48.792;9.032;2022-09-21T00:15:16;7.33;;;5.10;;
177;SDS011;77;48.792;9.032;2022-09-21T00:17:43;11.37;;;5.77;;
177;SDS011;77;48.792;9.032;2022-09-21T00:20:08;10.10;;;5.70;;
177;SDS011;77;48.792;9.032;2022-09-21T00:22:34;9.47;;;5.70;;
177;SDS011;77;48.792;9.032;2022-09-21T00:24:59;8.30;;;5.50;;
177;SDS011;77;48.792;9.032;2022-09-21T00:27:25;10.63;;;5.70;;
177;SDS011;77;48.792;9.032;2022-09-21T00:29:50;9.67;;;5.60;;
177;SDS011;77;48.792;9.032;2022-09-21T00:32:15;12.53;;;5.60;;
177;SDS011;77;48.792;9.032;2022-09-21T00:34:42;8.00;;;5.33;;
177;SDS011;77;48.792;9.032;2022-09-21T00:37:07;9.33;;;5.43;;
177;SDS011;77;48.792;9.032;2022-09-21T00:39:32;8.50;;;5.80;;
177;SDS011;77;48.792;9.032;2022-09-21T00:41:57;11.77;;;5.93;;
177;SDS011;77;48.792;9.032;2022-09-21T00:44:24;13.83;;;6.13;;
177;SDS011;77;48.792;9.032;2022-09-21T00:46:52;10.00;;;5.80;;
177;SDS011;77;48.792;9.032;2022-09-21T00:49:18;10.37;;;6.17;;
177;SDS011;77;48.792;9.032;2022-09-21T00:51:45;9.13;;;5.47;;
177;SDS011;77;48.792;9.032;2022-09-21T00:54:12;10.27;;;5.67;;
177;SDS011;77;48.792;9.032;2022-09-21T00:56:38;10.63;;;5.73;;
177;SDS011;77;48.792;9.032;2022-09-21T00:59:04;10.20;;;5.63;;
177;SDS011;77;48.792;9.032;2022-09-21T01:01:30;10.93;;;6.10;;
177;SDS011;77;48.792;9.032;2022-09-21T01:03:55;9.30;;;5.30;;
177;SDS011;77;48.792;9.032;2022-09-21T01:06:21;11.27;;;5.23;;
177;SDS011;77;48.792;9.032;2022-09-21T01:08:48;9.83;;;5.60;;
177;SDS011;77;48.792;9.032;2022-09-21T01:11:18;8.37;;;5.10;;
177;SDS011;77;48.792;9.032;2022-09-21T01:13:49;11.03;;;5.33;;
177;SDS011;77;48.792;9.032;2022-09-21T01:16:16;8.40;;;5.67;;
177;SDS011;77;48.792;9.032;2022-09-21T01:18:45;11.13;;;5.30;;
177;SDS011;77;48.792;9.032;2022-09-21T01:21:19;8.03;;;5.13;;
177;SDS011;77;48.792;9.032;2022-09-21T01:26:47;7.53;;;5.40;;
177;SDS011;77;48.792;9.032;2022-09-21T01:29:17;7.97;;;5.00;;
177;SDS011;77;48.792;9.032;2022-09-21T01:31:44;11.73;;;5.47;;
177;SDS011;77;48.792;9.032;2022-09-21T01:34:11;6.30;;;4.70;;
177;SDS011;77;48.792;9.032;2022-09-21T01:36:38;9.33;;;5.00;;
177;SDS011;77;48.792;9.032;2022-09-21T01:39:06;7.93;;;5.10;;
177;SDS011;77;48.792;9.032;2022-09-21T01:41:32;9.33;;;5.60;;
177;SDS011;77;48.792;9.032;2022-09-21T01:44:02;9.70;;;5.43;;
177;SDS011;77;48.792;9.032;2022-09-21T01:46:31;8.60;;;4.97;;
177;SDS011;77;48.792;9.032;2022-09-21T01:48:57;7.30;;;4.63;;
177;SDS011;77;48.792;9.032;2022-09-21T01:51:24;8.83;;;5.07;;
177;SDS011;77;48.792;9.032;2022-09-21T01:53:51;8.30;;;5.13;;
177;SDS011;77;48.792;9.032;2022-09-21T01:56:19;8.47;;;5.37;;
177;SDS011;77;48.792;9.032;2022-09-21T01:58:46;9.83;;;5.30;;
177;SDS011;77;48.792;9.032;2022-09-21T02:01:20;6.57;;;4.87;;
177;SDS011;77;48.792;9.032;2022-09-21T02:03:50;8.80;;;5.00;;
177;SDS011;77;48.792;9.032;2022-09-21T02:06:16;12.73;;;4.80;;
177;SDS011;77;48.792;9.032;2022-09-21T02:08:42;7.60;;;4.60;;
177;SDS011;77;48.792;9.032;2022-09-21T02:11:07;8.27;;;4.77;;
177;SDS011;77;48.792;9.032;2022-09-21T02:13:33;10.83;;;5.37;;
177;SDS011;77;48.792;9.032;2022-09-21T02:16:08;7.30;;;4.83;;
177;SDS011;77;48.792;9.032;2022-09-21T02:18:41;11.80;;;4.90;;
177;SDS011;77;48.792;9.032;2022-09-21T02:21:14;7.40;;;4.70;;
177;SDS011;77;48.792;9.032;2022-09-21T02:23:44;10.10;;;5.20;;
177;SDS011;77;48.792;9.032;2022-09-21T02:26:14;11.20;;;4.80;;
177;SDS011;77;48.792;9.032;2022-09-21T02:28:42;10.63;;;5.33;;
177;SDS011;77;48.792;9.032;2022-09-21T02:31:10;12.90;;;5.50;;
177;SDS011;77;48.792;9.032;2022-09-21T02:33:39;8.93;;;5.10;;
177;SDS011;77;48.792;9.032;2022-09-21T02:36:07;8.00;;;4.70;;
177;SDS011;77;48.792;9.032;2022-09-21T02:38:35;12.40;;;4.97;;
177;SDS011;77;48.792;9.032;2022-09-21T02:41:03;7.90;;;5.13;;
177;SDS011;77;48.792;9.032;2022-09-21T02:43:31;8.47;;;5.33;;
177;SDS011;77;48.792;9.032;2022-09-21T02:45:58;8.27;;;5.60;;
177;SDS011;77;48.792;9.032;2022-09-21T02:48:25;11.30;;;5.40;;
177;SDS011;77;48.792;9.032;2022-09-21T02:50:53;9.20;;;5.23;;
177;SDS011;77;48.792;9.032;2022-09-21T02:53:22;8.50;;;5.40;;
177;SDS011;77;48.792;9.032;2022-09-21T02:55:50;10.83;;;5.53;;
177;SDS011;77;48.792;9.032;2022-09-21T02:58:17;10.87;;;5.60;;
177;SDS011;77;48.792;9.032;2022-09-21T03:00:43;13.47;;;5.37;;
177;SDS011;77;48.792;9.032;2022-09-21T03:03:15;10.40;;;5.30;;
177;SDS011;77;48.792;9.032;2022-09-21T03:05:41;10.60;;;4.93;;
177;SDS011;77;48.792;9.032;2022-09-21T03:08:06;7.47;;;4.83;;
177;SDS011;77;48.792;9.032;2022-09-21T03:10:31;9.80;;;6.40;;
177;SDS011;77;48.792;9.032;2022-09-21T03:12:58;8.17;;;4.70;;
177;SDS011;77;48.792;9.032;2022-09-21T03:15:23;9.50;;;5.43;;
177;SDS011;77;48.792;9.032;2022-09-21T03:17:49;8.23;;;4.80;;
177;SDS011;77;48.792;9.032;2022-09-21T03:20:14;6.73;;;4.70;;
177;SDS011;77;48.792;9.032;2022-09-21T03:22:39;10.20;;;5.07;;
177;SDS011;77;48.792;9.032;2022-09-21T03:25:05;7.17;;;5.13;;
177;SDS011;77;48.792;9.032;2022-09-21T03:27:30;8.57;;;5.10;;
177;SDS011;77;48.792;9.032;2022-09-21T03:29:57;7.13;;;5.17;;
177;SDS011;77;48.792;9.032;2022-09-21T03:32:22;6.73;;;4.97;;
177;SDS011;77;48.792;9.032;2022-09-21T03:34:48;11.33;;;5.63;;
177;SDS011;77;48.792;9.032;2022-09-21T03:37:13;7.77;;;5.13;;
177;SDS011;77;48.792;9.032;2022-09-21T03:39:38;8.27;;;5.10;;
177;SDS011;77;48.792;9.032;2022-09-21T03:42:04;9.27;;;5.40;;
177;SDS011;77;48.792;9.032;2022-09-21T03:44:30;9.27;;;5.90;;
177;SDS011;77;48.792;9.032;2022-09-21T03:46:56;8.37;;;5.70;;
177;SDS011;77;48.792;9.032;2022-09-21T03:49:21;10.30;;;5.90;;
177;SDS011;77;48.792;9.032;2022-09-21T03:51:47;8.30;;;5.30;;
177;SDS011;77;48.792;9.032;2022-09-21T03:54:12;9.43;;;5.70;;
177;SDS011;77;48.792;9.032;2022-09-21T03:56:37;9.23;;;6.00;;
177;SDS011;77;48.792;9.032;2022-09-21T03:59:03;8.10;;;5.10;;
177;SDS011;77;48.792;9.032;2022-09-21T04:01:28;13.13;;;5.87;;
177;SDS011;77;48.792;9.032;2022-09-21T04:03:55;9.13;;;5.73;;
177;SDS011;77;48.792;9.032;2022-09-21T04:06:20;10.10;;;6.13;;
177;SDS011;77;48.792;9.032;2022-09-21T04:08:45;7.50;;;5.20;;
177;SDS011;77;48.792;9.032;2022-09-21T04:11:11;9.53;;;5.20;;
177;SDS011;77;48.792;9.032;2022-09-21T04:13:36;7.03;;;5.00;;
177;SDS011;77;48.792;9.032;2022-09-21T04:16:02;7.90;;;5.33;;
177;SDS011;77;48.792;9.032;2022-09-21T04:18:27;8.03;;;5.17;;
177;SDS011;77;48.792;9.032;2022-09-21T04:20:54;8.77;;;5.27;;
177;SDS011;77;48.792;9.032;2022-09-21T04:23:19;9.90;;;5.10;;
177;SDS011;77;48.792;9.032;2022-09-21T04:25:44;10.03;;;5.10;;
177;SDS011;77;48.792;9.032;2022-09-21T04:28:10;7.73;;;5.00;;
177;SDS011;77;48.792;9.032;2022-09-21T04:30:35;9.87;;;5.40;;
177;SDS011;77;48.792;9.032;2022-09-21T04:33:00;10.60;;;5.50;;
177;SDS011;77;48.792;9.032;2022-09-21T04:35:25;9.03;;;5.20;;
177;SDS011;77;48.792;9.032;2022-09-21T04:37:54;8.60;;;4.80;;
177;SDS011;77;48.792;9.032;2022-09-21T04:40:19;10.10;;;5.07;;
177;SDS011;77;48.792;9.032;2022-09-21T04:42:49;7.60;;;5.03;;
177;SDS011;77;48.792;9.032;2022-09-21T04:45:14;8.27;;;5.37;;
177;SDS011;77;48.792;9.032;2022-09-21T04:47:39;9.50;;;5.70;;
177;SDS011;77;48.792;9.032;2022-09-21T04:50:05;9.20;;;5.70;;
177;SDS011;77;48.792;9.032;2022-09-21T04:52:30;9.30;;;5.60;;
177;SDS011;77;48.792;9.032;2022-09-21T04:54:57;15.10;;;6.17;;
177;SDS011;77;48.792;9.032;2022-09-21T04:57:22;8.23;;;5.57;;
177;SDS011;77;48.792;9.032;2022-09-21T04:59:47;8.83;;;6.03;;
177;SDS011;77;48.792;9.032;2022-09-21T05:02:13;11.80;;;6.50;;
177;SDS011;77;48.792;9.032;2022-09-21T05:04:38;10.70;;;5.80;;
177;SDS011;77;48.792;9.032;2022-09-21T05:07:03;9.03;;;6.00;;
177;SDS011;77;48.792;9.032;2022-09-21T05:09:28;9.23;;;6.13;;
177;SDS011;77;48.792;9.032;2022-09-21T05:11:55;10.00;;;6.43;;
177;SDS011;77;48.792;9.032;2022-09-21T05:14:20;8.40;;;6.17;;
177;SDS011;77;48.792;9.032;2022-09-21T05:16:45;12.13;;;6.30;;
177;SDS011;77;48.792;9.032;2022-09-21T05:19:11;9.70;;;5.80;;
177;SDS011;77;48.792;9.032;2022-09-21T05:21:36;13.20;;;6.10;;
177;SDS011;77;48.792;9.032;2022-09-21T05:24:01;10.67;;;6.13;;
177;SDS011;77;48.792;9.032;2022-09-21T05:26:27;9.70;;;6.10;;
177;SDS011;77;48.792;9.032;2022-09-21T05:28:54;8.97;;;5.93;;
177;SDS011;77;48.792;9.032;2022-09-21T05:31:30;9.80;;;6.07;;
177;SDS011;77;48.792;9.032;2022-09-21T05:33:58;8.70;;;5.60;;
177;SDS011;77;48.792;9.032;2022-09-21T05:36:30;10.90;;;6.30;;
177;SDS011;77;48.792;9.032;2022-09-21T05:39:01;9.77;;;5.43;;
177;SDS011;77;48.792;9.032;2022-09-21T05:41:26;12.63;;;6.73;;
177;SDS011;77;48.792;9.032;2022-09-21T05:43:54;12.33;;;5.87;;
177;SDS011;77;48.792;9.032;2022-09-21T05:46:20;9.13;;;6.03;;
177;SDS011;77;48.792;9.032;2022-09-21T05:48:51;11.07;;;6.03;;
177;SDS011;77;48.792;9.032;2022-09-21T05:51:22;13.43;;;7.23;;
177;SDS011;77;48.792;9.032;2022-09-21T05:53:53;10.27;;;5.77;;
177;SDS011;77;48.792;9.032;2022-09-21T05:56:23;10.13;;;6.53;;
177;SDS011;77;48.792;9.032;2022-09-21T05:58:58;9.60;;;6.00;;
177;SDS011;77;48.792;9.032;2022-09-21T06:01:29;11.73;;;6.23;;
177;SDS011;77;48.792;9.032;2022-09-21T06:03:58;10.70;;;6.83;;
177;SDS011;77;48.792;9.032;2022-09-21T06:06:23;14.43;;;6.30;;
177;SDS011;77;48.792;9.032;2022-09-21T06:08:49;14.00;;;7.00;;
177;SDS011;77;48.792;9.032;2022-09-21T06:11:14;13.67;;;7.53;;
177;SDS011;77;48.792;9.032;2022-09-21T06:13:39;11.47;;;7.17;;
177;SDS011;77;48.792;9.032;2022-09-21T06:16:06;13.40;;;7.37;;
177;SDS011;77;48.792;9.032;2022-09-21T06:18:35;15.37;;;7.50;;
177;SDS011;77;48.792;9.032;2022-09-21T06:21:00;9.73;;;7.07;;
177;SDS011;77;48.792;9.032;2022-09-21T06:23:25;13.83;;;7.40;;
177;SDS011;77;48.792;9.032;2022-09-21T06:25:51;14.17;;;7.73;;
177;SDS011;77;48.792;9.032;2022-09-21T06:28:16;14.00;;;8.40;;
177;SDS011;77;48.792;9.032;2022-09-21T06:30:41;14.90;;;8.60;;
177;SDS011;77;48.792;9.032;2022-09-21T06:33:08;25.50;;;10.37;;
177;SDS011;77;48.792;9.032;2022-09-21T06:35:34;17.20;;;10.80;;
177;SDS011;77;48.792;9.032;2022-09-21T06:38:00;21.07;;;11.93;;
177;SDS011;77;48.792;9.032;2022-09-21T06:40:25;19.40;;;12.40;;
177;SDS011;77;48.792;9.032;2022-09-21T06:42:53;22.50;;;11.47;;
177;SDS011;77;48.792;9.032;2022-09-21T06:45:19;15.77;;;10.27;;
177;SDS011;77;48.792;9.032;2022-09-21T06:47:45;15.73;;;10.60;;
177;SDS011;77;48.792;9.032;2022-09-21T06:50:12;17.47;;;9.60;;
177;SDS011;77;48.792;9.032;2022-09-21T06:52:37;14.30;;;8.37;;
177;SDS011;77;48.792;9.032;2022-09-21T06:55:03;15.13;;;8.80;;
177;SDS011;77;48.792;9.032;2022-09-21T06:57:30;14.77;;;8.80;;
177;SDS011;77;48.792;9.032;2022-09-21T06:59:55;14.00;;;8.90;;
177;SDS011;77;48.792;9.032;2022-09-21T07:02:20;13.97;;;8.73;;
177;SDS011;77;48.792;9.032;2022-09-21T07:04:46;14.60;;;8.90;;
177;SDS011;77;48.792;9.032;2022-09-21T07:07:12;15.07;;;9.40;;
177;SDS011;77;48.792;9.032;2022-09-21T07:09:37;17.93;;;9.60;;
177;SDS011;77;48.792;9.032;2022-09-21T07:12:03;19.87;;;9.87;;
177;SDS011;77;48.792;9.032;2022-09-21T07:14:28;15.60;;;9.53;;
177;SDS011;77;48.792;9.032;2022-09-21T07:16:53;14.73;;;9.20;;
177;SDS011;77;48.792;9.032;2022-09-21T07:19:18;13.53;;;9.17;;
177;SDS011;77;48.792;9.032;2022-09-21T07:21:44;15.90;;;9.70;;
177;SDS011;77;48.792;9.032;2022-09-21T07:24:10;15.60;;;9.63;;
177;SDS011;77;48.792;9.032;2022-09-21T07:26:36;15.00;;;9.80;;
177;SDS011;77;48.792;9.032;2022-09-21T07:29:01;16.33;;;9.27;;
177;SDS011;77;48.792;9.032;2022-09-21T07:31:27;16.20;;;10.20;;
177;SDS011;77;48.792;9.032;2022-09-21T07:33:55;14.00;;;9.60;;
177;SDS011;77;48.792;9.032;2022-09-21T07:36:20;15.47;;;9.80;;
177;SDS011;77;48.792;9.032;2022-09-21T07:38:45;15.70;;;10.60;;
177;SDS011;77;48.792;9.032;2022-09-21T07:41:12;17.87;;;10.80;;
177;SDS011;77;48.792;9.032;2022-09-21T07:43:38;20.33;;;10.03;;
177;SDS011;77;48.792;9.032;2022-09-21T07:46:03;19.10;;;9.30;;
177;SDS011;77;48.792;9.032;2022-09-21T07:48:29;14.53;;;8.90;;
177;SDS011;77;48.792;9.032;2022-09-21T07:50:58;13.37;;;9.00;;
177;SDS011;77;48.792;9.032;2022-09-21T07:53:24;16.00;;;9.20;;
177;SDS011;77;48.792;9.032;2022-09-21T07:55:49;17.53;;;9.07;;
177;SDS011;77;48.792;9.032;2022-09-21T07:58:16;15.00;;;8.63;;
177;SDS011;77;48.792;9.032;2022-09-21T08:00:41;12.97;;;7.70;;
177;SDS011;77;48.792;9.032;2022-09-21T08:03:06;14.17;;;8.47;;
177;SDS011;77;48.792;9.032;2022-09-21T08:05:32;13.37;;;8.73;;
177;SDS011;77;48.792;9.032;2022-09-21T08:07:58;18.17;;;8.37;;
177;SDS011;77;48.792;9.032;2022-09-21T08:10:23;13.43;;;8.17;;
177;SDS011;77;48.792;9.032;2022-09-21T08:12:49;14.33;;;8.97;;
177;SDS011;77;48.792;9.032;2022-09-21T08:15:16;12.87;;;8.13;;
177;SDS011;77;48.792;9.032;2022-09-21T08:17:41;15.63;;;8.20;;
177;SDS011;77;48.792;9.032;2022-09-21T08:20:07;12.10;;;7.70;;
177;SDS011;77;48.792;9.032;2022-09-21T08:22:32;15.40;;;8.10;;
177;SDS011;77;48.792;9.032;2022-09-21T08:24:57;14.77;;;7.33;;
177;SDS011;77;48.792;9.032;2022-09-21T08:27:23;10.30;;;6.90;;
177;SDS011;77;48.792;9.032;2022-09-21T08:29:48;10.43;;;7.10;;
177;SDS011;77;48.792;9.032;2022-09-21T08:32:15;10.70;;;7.53;;
177;SDS011;77;48.792;9.032;2022-09-21T08:34:40;12.50;;;8.00;;
177;SDS011;77;48.792;9.032;2022-09-21T08:37:05;11.57;;;7.40;;
177;SDS011;77;48.792;9.032;2022-09-21T08:39:30;11.23;;;6.80;;
177;SDS011;77;48.792;9.032;2022-09-21T08:42:01;13.63;;;6.80;;
177;SDS011;77;48.792;9.032;2022-09-21T08:44:30;10.67;;;6.60;;
177;SDS011;77;48.792;9.032;2022-09-21T08:47:00;12.40;;;6.47;;
177;SDS011;77;48.792;9.032;2022-09-21T08:49:27;14.50;;;6.57;;
177;SDS011;77;48.792;9.032;2022-09-21T08:51:53;11.43;;;6.37;;
177;SDS011;77;48.792;9.032;2022-09-21T08:54:22;10.97;;;5.60;;
177;SDS011;77;48.792;9.032;2022-09-21T08:56:49;9.53;;;5.40;;
177;SDS011;77;48.792;9.032;2022-09-21T08:59:14;8.03;;;5.50;;
177;SDS011;77;48.792;9.032;2022-09-21T09:01:44;9.97;;;5.53;;
177;SDS011;77;48.792;9.032;2022-09-21T09:07:00;9.60;;;5.20;;
177;SDS011;77;48.792;9.032;2022-09-21T09:09:35;11.77;;;4.97;;
177;SDS011;77;48.792;9.032;2022-09-21T09:12:08;8.03;;;5.27;;
177;SDS011;77;48.792;9.032;2022-09-21T09:14:48;7.00;;;4.70;;
177;SDS011;77;48.792;9.032;2022-09-21T09:17:24;12.27;;;4.90;;
177;SDS011;77;48.792;9.032;2022-09-21T09:19:53;7.50;;;4.63;;
177;SDS011;77;48.792;9.032;2022-09-21T09:22:20;8.10;;;4.73;;
177;SDS011;77;48.792;9.032;2022-09-21T09:24:48;6.60;;;4.03;;
177;SDS011;77;48.792;9.032;2022-09-21T09:27:14;8.73;;;4.30;;
177;SDS011;77;48.792;9.032;2022-09-21T09:29:43;7.70;;;4.17;;
177;SDS011;77;48.792;9.032;2022-09-21T09:32:12;7.77;;;4.20;;
177;SDS011;77;48.792;9.032;2022-09-21T09:34:39;7.77;;;3.97;;
177;SDS011;77;48.792;9.032;2022-09-21T09:37:09;5.00;;;3.30;;
177;SDS011;77;48.792;9.032;2022-09-21T09:39:36;5.50;;;3.20;;
177;SDS011;77;48.792;9.032;2022-09-21T09:42:05;5.80;;;2.77;;
177;SDS011;77;48.792;9.032;2022-09-21T09:44:45;5.20;;;2.70;;
177;SDS011;77;48.792;9.032;2022-09-21T09:47:15;9.00;;;3.03;;
177;SDS011;77;48.792;9.032;2022-09-21T09:49:50;8.50;;;3.10;;
177;SDS011;77;48.792;9.032;2022-09-21T09:52:17;7.00;;;3.40;;
177;SDS011;77;48.792;9.032;2022-09-21T09:54:44;6.30;;;2.80;;
177;SDS011;77;48.792;9.032;2022-09-21T09:57:09;4.53;;;2.90;;
177;SDS011;77;48.792;9.032;2022-09-21T09:59:36;5.60;;;3.00;;
177;SDS011;77;48.792;9.032;2022-09-21T10:02:03;6.60;;;2.53;;
177;SDS011;77;48.792;9.032;2022-09-21T10:04:28;3.90;;;2.50;;
177;SDS011;77;48.792;9.032;2022-09-21T10:06:54;5.50;;;3.10;;
177;SDS011;77;48.792;9.032;2022-09-21T10:09:22;4.00;;;2.80;;
177;SDS011;77;48.792;9.032;2022-09-21T10:11:49;5.10;;;2.50;;
177;SDS011;77;48.792;9.032;2022-09-21T10:14:16;4.60;;;2.47;;
177;SDS011;77;48.792;9.032;2022-09-21T10:16:42;5.80;;;2.57;;
177;SDS011;77;48.792;9.032;2022-09-21T10:19:12;7.10;;;2.80;;
177;SDS011;77;48.792;9.032;2022-09-21T10:21:38;5.83;;;2.90;;
177;SDS011;77;48.792;9.032;2022-09-21T10:24:05;4.37;;;2.20;;
177;SDS011;77;48.792;9.032;2022-09-21T10:26:33;4.30;;;2.20;;
177;SDS011;77;48.792;9.032;2022-09-21T10:29:02;3.43;;;2.33;;
177;SDS011;77;48.792;9.032;2022-09-21T10:31:40;3.27;;;1.90;;
177;SDS011;77;48.792;9.032;2022-09-21T10:34:17;3.93;;;1.80;;
177;SDS011;77;48.792;9.032;2022-09-21T10:36:47;4.37;;;2.20;;
177;SDS011;77;48.792;9.032;2022-09-21T10:39:20;7.03;;;2.37;;
177;SDS011;77;48.792;9.032;2022-09-21T10:41:46;4.00;;;2.07;;
177;SDS011;77;48.792;9.032;2022-09-21T10:44:14;4.00;;;2.30;;
177;SDS011;77;48.792;9.032;2022-09-21T10:46:40;4.57;;;2.20;;
177;SDS011;77;48.792;9.032;2022-09-21T10:49:10;4.80;;;2.10;;
177;SDS011;77;48.792;9.032;2022-09-21T10:51:36;3.43;;;2.10;;
177;SDS011;77;48.792;9.032;2022-09-21T10:54:02;3.53;;;2.20;;
177;SDS011;77;48.792;9.032;2022-09-21T10:56:31;6.90;;;2.07;;
177;SDS011;77;48.792;9.032;2022-09-21T10:59:09;4.30;;;2.20;;
177;SDS011;77;48.792;9.032;2022-09-21T11:01:37;4.07;;;2.10;;
177;SDS011;77;48.792;9.032;2022-09-21T11:04:07;4.50;;;2.43;;
177;SDS011;77;48.792;9.032;2022-09-21T11:06:36;3.70;;;2.27;;
177;SDS011;77;48.792;9.032;2022-09-21T11:09:04;3.20;;;2.17;;
177;SDS011;77;48.792;9.032;2022-09-21T11:11:42;3.70;;;2.33;;
177;SDS011;77;48.792;9.032;2022-09-21T11:14:13;3.57;;;2.20;;
177;SDS011;77;48.792;9.032;2022-09-21T11:16:42;4.20;;;2.27;;
177;SDS011;77;48.792;9.032;2022-09-21T11:19:10;4.30;;;2.40;;
177;SDS011;77;48.792;9.032;2022-09-21T11:21:40;3.60;;;2.20;;
177;SDS011;77;48.792;9.032;2022-09-21T11:24:09;4.07;;;2.60;;
177;SDS011;77;48.792;9.032;2022-09-21T11:26:39;4.00;;;2.70;;
177;SDS011;77;48.792;9.032;2022-09-21T11:29:07;4.87;;;3.10;;
177;SDS011;77;48.792;9.032;2022-09-21T11:31:36;3.83;;;2.57;;
177;SDS011;77;48.792;9.032;2022-09-21T11:34:10;4.30;;;2.80;;
177;SDS011;77;48.792;9.032;2022-09-21T11:36:41;6.80;;;3.13;;
177;SDS011;77;48.792;9.032;2022-09-21T11:39:12;4.90;;;2.90;;
177;SDS011;77;48.792;9.032;2022-09-21T11:41:44;7.07;;;3.00;;
177;SDS011;77;48.792;9.032;2022-09-21T11:44:18;5.00;;;2.80;;
177;SDS011;77;48.792;9.032;2022-09-21T11:46:46;4.27;;;2.90;;
177;SDS011;77;48.792;9.032;2022-09-21T11:52:03;3.90;;;2.50;;
177;SDS011;77;48.792;9.032;2022-09-21T11:57:15;4.73;;;2.33;;
177;SDS011;77;48.792;9.032;2022-09-21T12:02:47;3.50;;;2.37;;
177;SDS011;77;48.792;9.032;2022-09-21T12:05:18;3.13;;;2.20;;
177;SDS011;77;48.792;9.032;2022-09-21T12:10:34;3.90;;;2.37;;
177;SDS011;77;48.792;9.032;2022-09-21T12:13:02;4.23;;;2.27;;
177;SDS011;77;48.792;9.032;2022-09-21T12:15:31;3.53;;;2.20;;
177;SDS011;77;48.792;9.032;2022-09-21T12:18:01;3.40;;;2.23;;
177;SDS011;77;48.792;9.032;2022-09-21T12:20:30;2.80;;;1.90;;
177;SDS011;77;48.792;9.032;2022-09-21T12:22:59;3.00;;;1.90;;
177;SDS011;77;48.792;9.032;2022-09-21T12:25:26;3.17;;;2.10;;
177;SDS011;77;48.792;9.032;2022-09-21T12:27:55;3.67;;;2.20;;
177;SDS011;77;48.792;9.032;2022-09-21T12:30:23;3.30;;;2.10;;
177;SDS011;77;48.792;9.032;2022-09-21T12:32:50;3.50;;;2.10;;
177;SDS011;77;48.792;9.032;2022-09-21T12:35:20;4.13;;;2.10;;
177;SDS011;77;48.792;9.032;2022-09-21T12:37:48;4.37;;;2.27;;
177;SDS011;77;48.792;9.032;2022-09-21T12:40:16;3.83;;;2.00;;
177;SDS011;77;48.792;9.032;2022-09-21T12:42:44;3.30;;;2.10;;
177;SDS011;77;48.792;9.032;2022-09-21T12:45:13;3.50;;;2.10;;
177;SDS011;77;48.792;9.032;2022-09-21T12:47:45;3.53;;;2.13;;
177;SDS011;77;48.792;9.032;2022-09-21T12:50:14;4.10;;;2.10;;
177;SDS011;77;48.792;9.032;2022-09-21T12:52:41;3.17;;;1.90;;
177;SDS011;77;48.792;9.032;2022-09-21T12:55:09;3.87;;;2.10;;
177;SDS011;77;48.792;9.032;2022-09-21T12:57:43;3.60;;;2.27;;
177;SDS011;77;48.792;9.032;2022-09-21T13:00:12;6.13;;;2.10;;
177;SDS011;77;48.792;9.032;2022-09-21T13:02:39;2.57;;;1.80;;
177;SDS011;77;48.792;9.032;2022-09-21T13:05:06;3.07;;;1.80;;
177;SDS011;77;48.792;9.032;2022-09-21T13:07:39;3.17;;;1.80;;
177;SDS011;77;48.792;9.032;2022-09-21T13:10:13;3.37;;;1.80;;
177;SDS011;77;48.792;9.032;2022-09-21T13:12:39;2.53;;;1.70;;
177;SDS011;77;48.792;9.032;2022-09-21T13:15:11;3.03;;;1.70;;
177;SDS011;77;48.792;9.032;2022-09-21T13:17:38;2.87;;;1.80;;
177;SDS011;77;48.792;9.032;2022-09-21T13:20:04;3.73;;;1.90;;
177;SDS011;77;48.792;9.032;2022-09-21T13:22:31;3.77;;;1.80;;
177;SDS011;77;48.792;9.032;2022-09-21T13:24:57;2.83;;;1.70;;
177;SDS011;77;48.792;9.032;2022-09-21T13:27:25;3.63;;;1.90;;
177;SDS011;77;48.792;9.032;2022-09-21T13:30:18;2.50;;;1.80;;
177;SDS011;77;48.792;9.032;2022-09-21T13:32:51;3.03;;;2.00;;
177;SDS011;77;48.792;9.032;2022-09-21T13:40:48;2.70;;;1.60;;
177;SDS011;77;48.792;9.032;2022-09-21T13:45:54;2.43;;;1.53;;
177;SDS011;77;48.792;9.032;2022-09-21T13:48:22;3.57;;;1.80;;
177;SDS011;77;48.792;9.032;2022-09-21T13:50:50;2.90;;;1.87;;
177;SDS011;77;48.792;9.032;2022-09-21T13:53:16;2.83;;;1.73;;
177;SDS011;77;48.792;9.032;2022-09-21T13:55:47;6.70;;;1.90;;
177;SDS011;77;48.792;9.032;2022-09-21T13:58:16;3.73;;;1.80;;
177;SDS011;77;48.792;9.032;2022-09-21T14:00:49;2.50;;;1.80;;
177;SDS011;77;48.792;9.032;2022-09-21T14:03:17;2.40;;;1.70;;
177;SDS011;77;48.792;9.032;2022-09-21T14:05:46;3.23;;;1.63;;
177;SDS011;77;48.792;9.032;2022-09-21T14:08:17;2.70;;;1.77;;
177;SDS011;77;48.792;9.032;2022-09-21T14:10:47;2.60;;;1.60;;
177;SDS011;77;48.792;9.032;2022-09-21T14:13:22;3.03;;;1.90;;
177;SDS011;77;48.792;9.032;2022-09-21T14:15:49;2.43;;;1.77;;
177;SDS011;77;48.792;9.032;2022-09-21T14:18:19;2.20;;;1.60;;
177;SDS011;77;48.792;9.032;2022-09-21T14:23:27;2.87;;;1.80;;
177;SDS011;77;48.792;9.032;2022-09-21T14:25:53;2.90;;;1.70;;
177;SDS011;77;48.792;9.032;2022-09-21T14:28:21;7.30;;;1.93;;
177;SDS011;77;48.792;9.032;2022-09-21T14:30:51;3.10;;;1.80;;
177;SDS011;77;48.792;9.032;2022-09-21T14:33:29;4.70;;;2.00;;
177;SDS011;77;48.792;9.032;2022-09-21T14:35:56;2.80;;;1.70;;
177;SDS011;77;48.792;9.032;2022-09-21T14:38:22;2.93;;;1.80;;
177;SDS011;77;48.792;9.032;2022-09-21T14:40:50;3.03;;;1.70;;
177;SDS011;77;48.792;9.032;2022-09-21T14:43:17;3.50;;;1.77;;
177;SDS011;77;48.792;9.032;2022-09-21T14:45:48;2.80;;;1.90;;
177;SDS011;77;48.792;9.032;2022-09-21T14:48:17;3.27;;;2.17;;
177;SDS011;77;48.792;9.032;2022-09-21T14:50:46;3.20;;;1.97;;
177;SDS011;77;48.792;9.032;2022-09-21T14:53:23;4.03;;;1.80;;
177;SDS011;77;48.792;9.032;2022-09-21T14:55:57;3.07;;;1.77;;
177;SDS011;77;48.792;9.032;2022-09-21T14:58:30;2.30;;;1.60;;
177;SDS011;77;48.792;9.032;2022-09-21T15:03:40;4.20;;;2.10;;
177;SDS011;77;48.792;9.032;2022-09-21T15:06:11;3.90;;;1.80;;
177;SDS011;77;48.792;9.032;2022-09-21T15:08:43;3.07;;;2.00;;
177;SDS011;77;48.792;9.032;2022-09-21T15:11:17;2.60;;;1.70;;
177;SDS011;77;48.792;9.032;2022-09-21T15:16:28;3.20;;;1.90;;
177;SDS011;77;48.792;9.032;2022-09-21T15:19:09;2.70;;;1.90;;
177;SDS011;77;48.792;9.032;2022-09-21T15:21:34;2.90;;;1.80;;
177;SDS011;77;48.792;9.032;2022-09-21T15:24:01;2.40;;;1.80;;
177;SDS011;77;48.792;9.032;2022-09-21T15:26:35;3.80;;;1.90;;
177;SDS011;77;48.792;9.032;2022-09-21T15:29:02;4.20;;;1.90;;
177;SDS011;77;48.792;9.032;2022-09-21T15:31:30;3.50;;;2.00;;
177;SDS011;77;48.792;9.032;2022-09-21T15:33:56;3.77;;;1.70;;
177;SDS011;77;48.792;9.032;2022-09-21T15:36:22;2.90;;;1.70;;
177;SDS011;77;48.792;9.032;2022-09-21T15:38:48;3.80;;;1.70;;
177;SDS011;77;48.792;9.032;2022-09-21T15:41:17;2.17;;;1.50;;
177;SDS011;77;48.792;9.032;2022-09-21T15:44:04;2.50;;;1.57;;
177;SDS011;77;48.792;9.032;2022-09-21T15:46:30;3.00;;;1.90;;
177;SDS011;77;48.792;9.032;2022-09-21T15:48:55;2.73;;;1.90;;
177;SDS011;77;48.792;9.032;2022-09-21T15:51:23;2.40;;;1.70;;
177;SDS011;77;48.792;9.032;2022-09-21T15:53:53;2.43;;;1.70;;
177;SDS011;77;48.792;9.032;2022-09-21T15:56:21;2.47;;;1.70;;
177;SDS011;77;48.792;9.032;2022-09-21T15:58:48;3.03;;;1.70;;
177;SDS011;77;48.792;9.032;2022-09-21T16:01:15;3.20;;;1.80;;
177;SDS011;77;48.792;9.032;2022-09-21T16:03:42;2.23;;;1.70;;
177;SDS011;77;48.792;9.032;2022-09-21T16:06:16;2.63;;;1.73;;
177;SDS011;77;48.792;9.032;2022-09-21T16:08:42;4.00;;;1.90;;
177;SDS011;77;48.792;9.032;2022-09-21T16:13:57;2.80;;;2.00;;
177;SDS011;77;48.792;9.032;2022-09-21T16:16:24;3.03;;;1.97;;
177;SDS011;77;48.792;9.032;2022-09-21T16:18:50;2.20;;;1.70;;
177;SDS011;77;48.792;9.032;2022-09-21T16:21:18;2.47;;;1.70;;
177;SDS011;77;48.792;9.032;2022-09-21T16:23:44;2.63;;;1.80;;
177;SDS011;77;48.792;9.032;2022-09-21T16:26:16;2.23;;;1.80;;
177;SDS011;77;48.792;9.032;2022-09-21T16:28:42;4.10;;;2.10;;
177;SDS011;77;48.792;9.032;2022-09-21T16:31:21;3.97;;;1.90;;
177;SDS011;77;48.792;9.032;2022-09-21T16:33:57;4.27;;;2.20;;